Accueil
METAR-TAF:

METAR-TAF

Aéroports :

Aérodrome de Sanikiluaq

Sanikiluaq, Nunavut, Canada

latitude: 56-32N, longitude: 079-15W, altitude: 32 m

Observation

Le bulletin a été fait il y a 52 minutes, à 19:00 UTC
Vent 9 kt de nord/nord-ouest
Température -4°C
Humidité 80%
Pression 1021 hPa
Visibilité: 24.1 km
Nuages fragmentés à une hauteur de 1400 ft
Ciel couvert à une hauteur de 2500 ft
neige faible

METAR: CYSK 221900Z 34009KT 15SM -SN BKN014 OVC025 M04/M07 A3014 RMK SC5SC3 SLP212

Heure: 15:52 (19:52 UTC)


TAF: absent

Observations et prévisions météorologiques de plus de 4000 aéroports (messages METAR et TAF).

Les stations disponibles sont représentées par des disques jaunes et rouges sur la carte.

Passer la souris dessus pour voir le nom de la station.

Cliquer dessus pour voir les observations et prévisions météorologiques.

Pour changer de carte: cliquez sur les boutons verts avec une croix noire pour zoomer, sur le bouton vert avec un tiret pour effectuer un zoom arrière, ou sur les flèches vertes pour les cartes adjacentes.


METAR-TAF: